createdAt,value
2023-10-20T00:00:23.547Z,7.70
2023-10-20T00:03:09.145Z,7.70
2023-10-20T00:05:54.884Z,7.70
2023-10-20T00:08:41.165Z,7.70
2023-10-20T00:11:27.087Z,7.70
2023-10-20T00:14:13.073Z,7.70
2023-10-20T00:16:58.647Z,7.70
2023-10-20T00:19:44.787Z,7.70
2023-10-20T00:22:30.255Z,7.60
2023-10-20T00:25:16.036Z,7.70
2023-10-20T00:28:01.968Z,7.70
2023-10-20T00:30:47.369Z,7.70
2023-10-20T00:33:33.133Z,7.70
2023-10-20T00:36:18.982Z,7.70
2023-10-20T00:39:06.551Z,7.70
2023-10-20T00:41:52.094Z,7.70
2023-10-20T00:44:37.655Z,7.70
2023-10-20T00:47:23.928Z,7.70
2023-10-20T00:50:11.361Z,7.70
2023-10-20T00:52:57.289Z,7.60
2023-10-20T00:55:42.972Z,7.60
2023-10-20T00:58:30.072Z,7.60
2023-10-20T01:01:15.985Z,7.60
2023-10-20T01:04:03.045Z,7.70
2023-10-20T01:06:49.366Z,7.70
2023-10-20T01:09:35.304Z,7.70
2023-10-20T01:12:20.945Z,7.70
2023-10-20T01:15:07.899Z,7.70
2023-10-20T01:17:53.890Z,7.70
2023-10-20T01:20:39.865Z,7.70
2023-10-20T01:23:25.745Z,7.70
2023-10-20T01:26:11.631Z,7.70
2023-10-20T01:28:58.088Z,7.70
2023-10-20T01:31:43.983Z,7.70
2023-10-20T01:34:30.456Z,7.70
2023-10-20T01:37:16.524Z,7.70
2023-10-20T01:40:02.406Z,7.80
2023-10-20T01:42:48.105Z,7.70
2023-10-20T01:45:33.822Z,7.70
2023-10-20T01:48:19.464Z,7.80
2023-10-20T01:51:05.171Z,7.80
2023-10-20T01:53:50.735Z,7.80
2023-10-20T01:56:36.897Z,7.70
2023-10-20T01:59:22.461Z,7.70
2023-10-20T02:02:07.929Z,7.70
2023-10-20T02:04:53.937Z,7.70
2023-10-20T02:07:39.918Z,7.80
2023-10-20T02:10:25.466Z,7.80
2023-10-20T02:13:10.999Z,7.80
2023-10-20T02:15:56.601Z,7.80
2023-10-20T02:18:42.318Z,7.80
2023-10-20T02:21:27.720Z,7.80
2023-10-20T02:24:13.343Z,7.80
2023-10-20T02:26:59.072Z,7.80
2023-10-20T02:29:44.604Z,7.80
2023-10-20T02:32:30.043Z,7.90
2023-10-20T02:35:16.243Z,7.90
2023-10-20T02:38:02.115Z,7.90
2023-10-20T02:40:56.112Z,7.90
2023-10-20T02:43:42.223Z,7.90
2023-10-20T02:46:28.094Z,7.80
2023-10-20T02:49:13.769Z,7.80
2023-10-20T02:51:59.237Z,7.80
2023-10-20T02:54:44.719Z,7.80
2023-10-20T02:57:30.283Z,7.80
2023-10-20T03:00:16.220Z,7.90
2023-10-20T03:03:02.545Z,7.90
2023-10-20T03:05:48.595Z,7.90
2023-10-20T03:08:40.389Z,7.90
2023-10-20T03:11:26.775Z,7.90
2023-10-20T03:14:13.014Z,7.90
2023-10-20T03:16:59.019Z,7.90
2023-10-20T03:19:45.355Z,7.90
2023-10-20T03:22:31.233Z,8.00
2023-10-20T03:25:16.971Z,8.00
2023-10-20T03:28:02.797Z,8.00
2023-10-20T03:30:51.560Z,7.90
2023-10-20T03:33:37.922Z,7.90
2023-10-20T03:36:23.662Z,8.00
2023-10-20T03:39:09.540Z,7.90
2023-10-20T03:41:55.559Z,7.90
2023-10-20T03:44:41.448Z,8.00
2023-10-20T03:47:26.978Z,8.00
2023-10-20T03:50:12.992Z,8.00
2023-10-20T03:52:58.854Z,8.00
2023-10-20T03:55:44.725Z,8.00
2023-10-20T03:58:30.868Z,8.00
2023-10-20T04:01:16.676Z,8.00
2023-10-20T04:04:02.581Z,8.00
2023-10-20T04:06:48.041Z,8.00
2023-10-20T04:09:33.566Z,8.10
2023-10-20T04:12:19.544Z,8.10
2023-10-20T04:15:07.520Z,8.10
2023-10-20T04:17:53.588Z,8.10
2023-10-20T04:20:39.696Z,8.10
2023-10-20T04:23:25.424Z,8.10
2023-10-20T04:26:18.886Z,8.20
2023-10-20T04:29:04.763Z,8.20
2023-10-20T04:31:50.696Z,8.20
2023-10-20T04:34:36.915Z,8.20
2023-10-20T04:37:22.627Z,8.20
2023-10-20T04:40:08.747Z,8.20
2023-10-20T04:42:54.955Z,8.20
2023-10-20T04:45:40.845Z,8.20
2023-10-20T04:48:26.917Z,8.20
2023-10-20T04:51:12.289Z,8.20
2023-10-20T04:53:57.884Z,8.20
2023-10-20T04:56:43.552Z,8.20
2023-10-20T04:59:29.087Z,8.20
2023-10-20T05:02:14.597Z,8.20
2023-10-20T05:05:01.031Z,8.30
2023-10-20T05:07:46.551Z,8.20
2023-10-20T05:10:32.926Z,8.30
2023-10-20T05:13:18.805Z,8.30
2023-10-20T05:16:04.809Z,8.30
2023-10-20T05:18:50.670Z,8.40
2023-10-20T05:21:36.211Z,8.30
2023-10-20T05:24:21.878Z,8.40
2023-10-20T05:27:07.350Z,8.40
2023-10-20T05:29:53.363Z,8.50
2023-10-20T05:32:39.746Z,8.50
2023-10-20T05:35:25.720Z,8.50
2023-10-20T05:38:11.346Z,8.60
2023-10-20T05:40:59.906Z,8.60
2023-10-20T05:43:47.924Z,8.60
2023-10-20T05:46:33.823Z,8.60
2023-10-20T05:49:19.882Z,8.70
2023-10-20T05:52:05.428Z,8.70
2023-10-20T05:54:51.206Z,8.70
2023-10-20T05:57:36.560Z,8.70
2023-10-20T06:00:22.194Z,8.70
2023-10-20T06:03:08.051Z,8.80
2023-10-20T06:06:02.839Z,8.90
2023-10-20T06:08:48.669Z,8.90
2023-10-20T06:11:34.545Z,9.00
2023-10-20T06:14:22.045Z,8.90
2023-10-20T06:17:07.565Z,9.00
2023-10-20T06:19:53.300Z,9.10
2023-10-20T06:22:38.955Z,9.10
2023-10-20T06:25:24.392Z,9.10
2023-10-20T06:28:09.957Z,9.20
2023-10-20T06:30:55.497Z,9.20
2023-10-20T06:33:40.997Z,9.20
2023-10-20T06:36:26.507Z,9.30
2023-10-20T06:39:12.021Z,9.30
2023-10-20T06:41:57.569Z,9.30
2023-10-20T06:44:43.120Z,9.40
2023-10-20T06:47:29.141Z,9.40
2023-10-20T06:50:14.845Z,9.40
2023-10-20T06:53:00.743Z,9.40
2023-10-20T06:56:05.245Z,9.50
2023-10-20T06:58:52.965Z,9.50
2023-10-20T07:01:38.454Z,9.50
2023-10-20T07:04:24.338Z,9.60
2023-10-20T07:07:09.680Z,9.70
2023-10-20T07:09:55.285Z,9.70
2023-10-20T07:12:40.831Z,9.80
2023-10-20T07:15:26.688Z,9.80
2023-10-20T07:18:13.886Z,9.90
2023-10-20T07:20:59.830Z,9.90
2023-10-20T07:23:45.468Z,9.90
2023-10-20T07:26:32.293Z,9.90
2023-10-20T07:29:18.313Z,10.00
2023-10-20T07:32:04.460Z,10.00
2023-10-20T07:34:52.100Z,10.00
2023-10-20T07:37:39.489Z,10.10
2023-10-20T07:40:25.018Z,10.10
2023-10-20T07:43:10.514Z,10.20
2023-10-20T07:45:56.080Z,10.20
2023-10-20T07:48:42.172Z,10.30
2023-10-20T07:51:27.771Z,10.30
2023-10-20T07:54:13.685Z,10.40
2023-10-20T07:56:59.179Z,10.40
2023-10-20T07:59:44.947Z,10.40
2023-10-20T08:02:31.048Z,10.50
2023-10-20T08:05:17.217Z,10.50
2023-10-20T08:08:02.891Z,10.60
2023-10-20T08:10:50.796Z,10.70
2023-10-20T08:13:37.004Z,10.80
2023-10-20T08:16:22.618Z,10.80
2023-10-20T08:19:08.620Z,10.80
2023-10-20T08:21:54.225Z,10.90
2023-10-20T08:24:40.232Z,10.90
2023-10-20T08:27:25.780Z,10.90
2023-10-20T08:30:12.400Z,11.00
2023-10-20T08:32:57.887Z,11.00
2023-10-20T08:35:43.874Z,11.10
2023-10-20T08:38:29.348Z,11.20
2023-10-20T08:41:21.677Z,11.20
2023-10-20T08:44:07.420Z,11.20
2023-10-20T08:46:53.669Z,11.20
2023-10-20T08:49:40.751Z,11.30
2023-10-20T08:52:26.344Z,11.30
2023-10-20T08:55:11.852Z,11.30
2023-10-20T08:57:57.476Z,11.30
2023-10-20T09:00:51.443Z,11.30
2023-10-20T09:03:49.000Z,11.30
2023-10-20T09:06:34.745Z,11.30
2023-10-20T09:09:21.455Z,11.30
2023-10-20T09:12:07.648Z,11.30
2023-10-20T09:14:53.376Z,11.30
2023-10-20T09:17:39.384Z,11.40
2023-10-20T09:20:25.574Z,11.40
2023-10-20T09:23:13.486Z,11.40
2023-10-20T09:26:00.192Z,11.50
2023-10-20T09:28:52.053Z,11.50
2023-10-20T09:31:39.048Z,11.60
2023-10-20T09:34:25.199Z,11.60
2023-10-20T09:37:10.978Z,11.70
2023-10-20T09:40:08.253Z,11.60
2023-10-20T09:43:26.244Z,11.70
2023-10-20T09:46:57.064Z,11.70
2023-10-20T09:49:43.761Z,11.70
2023-10-20T09:52:30.264Z,11.80
2023-10-20T09:55:16.207Z,11.70
2023-10-20T09:58:02.277Z,11.80
2023-10-20T10:00:47.878Z,11.80
2023-10-20T10:03:37.268Z,11.80
2023-10-20T10:06:23.071Z,11.80
2023-10-20T10:09:08.445Z,11.90
2023-10-20T10:11:56.497Z,11.80
2023-10-20T10:14:42.962Z,11.90
2023-10-20T10:17:29.052Z,11.90
2023-10-20T10:20:27.278Z,11.90
2023-10-20T10:23:13.939Z,11.90
2023-10-20T10:26:00.064Z,11.90
2023-10-20T10:28:49.743Z,12.00
2023-10-20T10:31:36.932Z,12.00
2023-10-20T10:34:22.582Z,12.10
2023-10-20T10:37:08.413Z,12.10
2023-10-20T10:39:53.973Z,12.20
2023-10-20T10:42:47.915Z,12.20
2023-10-20T10:45:33.601Z,12.30
2023-10-20T10:48:19.477Z,12.30
2023-10-20T10:51:05.384Z,12.40
2023-10-20T10:53:52.510Z,12.40
2023-10-20T10:56:38.638Z,12.50
2023-10-20T10:59:24.806Z,12.40
2023-10-20T11:02:10.477Z,12.40
2023-10-20T11:04:56.131Z,12.50
2023-10-20T11:07:42.099Z,12.50
2023-10-20T11:10:29.370Z,12.50
2023-10-20T11:13:15.278Z,12.50
2023-10-20T11:16:01.285Z,12.60
2023-10-20T11:18:48.266Z,12.60
2023-10-20T11:21:49.181Z,12.60
2023-10-20T11:24:37.476Z,12.60
2023-10-20T11:27:23.499Z,12.60
2023-10-20T11:30:10.853Z,12.60
2023-10-20T11:32:57.127Z,12.70
2023-10-20T11:35:43.326Z,12.70
2023-10-20T11:38:29.485Z,12.80
2023-10-20T11:41:15.566Z,12.80
2023-10-20T11:44:01.505Z,12.80
2023-10-20T11:46:46.998Z,12.80
2023-10-20T11:49:32.402Z,12.90
2023-10-20T11:52:18.067Z,12.90
2023-10-20T11:55:06.252Z,12.90
2023-10-20T11:57:51.979Z,12.90
2023-10-20T12:00:38.311Z,12.90
2023-10-20T12:03:24.057Z,12.90
2023-10-20T12:06:09.678Z,12.90
2023-10-20T12:08:55.232Z,12.90
2023-10-20T12:11:40.857Z,12.90
2023-10-20T12:14:26.437Z,12.90
2023-10-20T12:17:11.812Z,12.90
2023-10-20T12:19:57.494Z,13.00
2023-10-20T12:22:42.904Z,13.00
2023-10-20T12:25:28.681Z,13.00
2023-10-20T12:28:14.338Z,13.00
2023-10-20T12:31:00.493Z,13.10
2023-10-20T12:33:47.072Z,13.10
2023-10-20T12:36:32.477Z,13.10
2023-10-20T12:39:17.919Z,13.20
2023-10-20T12:42:03.716Z,13.30
2023-10-20T12:44:49.453Z,13.30
2023-10-20T12:47:36.216Z,13.30
2023-10-20T12:50:22.155Z,13.30
2023-10-20T12:53:07.592Z,13.30
2023-10-20T12:55:56.219Z,13.30
2023-10-20T12:58:41.719Z,13.30
2023-10-20T13:01:27.289Z,13.30
2023-10-20T13:04:13.043Z,13.40
2023-10-20T13:07:00.930Z,13.40
2023-10-20T13:09:47.172Z,13.40
2023-10-20T13:12:32.832Z,13.40
2023-10-20T13:15:18.412Z,13.50
2023-10-20T13:18:04.288Z,13.50
2023-10-20T13:20:50.379Z,13.50
2023-10-20T13:23:35.991Z,13.60
2023-10-20T13:26:21.565Z,13.60
2023-10-20T13:29:07.492Z,13.60
2023-10-20T13:31:53.038Z,13.60
2023-10-20T13:34:38.504Z,13.60
2023-10-20T13:37:24.018Z,13.60
2023-10-20T13:40:10.599Z,13.60
2023-10-20T13:42:56.427Z,13.60
2023-10-20T13:45:42.078Z,13.60
2023-10-20T13:48:27.678Z,13.50
2023-10-20T13:51:13.653Z,13.60
2023-10-20T13:53:59.307Z,13.60
2023-10-20T13:56:44.722Z,13.50
2023-10-20T13:59:30.982Z,13.50
2023-10-20T14:02:16.424Z,13.50
2023-10-20T14:05:01.910Z,13.50
2023-10-20T14:07:47.554Z,13.50
2023-10-20T14:10:33.032Z,13.50
2023-10-20T14:13:19.112Z,13.50
2023-10-20T14:16:05.084Z,13.50
2023-10-20T14:18:50.453Z,13.50
2023-10-20T14:21:36.074Z,13.50
2023-10-20T14:24:21.609Z,13.50
2023-10-20T14:27:07.030Z,13.40
2023-10-20T14:29:52.634Z,13.40
2023-10-20T14:32:38.679Z,13.40
2023-10-20T14:35:24.412Z,13.40
2023-10-20T14:38:10.044Z,13.40
2023-10-20T14:41:07.748Z,13.40
2023-10-20T14:43:53.694Z,13.40
2023-10-20T14:46:39.287Z,13.30
2023-10-20T14:49:25.348Z,13.30
2023-10-20T14:52:10.735Z,13.30
2023-10-20T14:54:57.026Z,13.30
2023-10-20T14:57:42.600Z,13.20
2023-10-20T15:00:28.656Z,13.20
2023-10-20T15:03:16.258Z,13.20
2023-10-20T15:06:02.858Z,13.20
2023-10-20T15:08:48.870Z,13.20
2023-10-20T15:11:34.511Z,13.20
2023-10-20T15:14:20.185Z,13.20
2023-10-20T15:17:05.867Z,13.20
2023-10-20T15:19:51.594Z,13.10
2023-10-20T15:22:37.526Z,13.10
2023-10-20T15:25:23.693Z,13.10
2023-10-20T15:28:09.163Z,13.00
2023-10-20T15:30:54.716Z,13.00
2023-10-20T15:33:40.799Z,13.00
2023-10-20T15:36:26.977Z,13.00
2023-10-20T15:39:12.716Z,13.00
2023-10-20T15:41:58.277Z,13.00
2023-10-20T15:44:44.214Z,13.00
2023-10-20T15:47:30.033Z,13.00
2023-10-20T15:50:16.265Z,13.00
2023-10-20T15:53:02.145Z,13.00
2023-10-20T15:55:47.975Z,13.00
2023-10-20T15:58:33.809Z,12.90
2023-10-20T16:01:19.532Z,12.90
2023-10-20T16:04:05.371Z,12.90
2023-10-20T16:06:50.940Z,12.90
2023-10-20T16:09:36.771Z,12.90
2023-10-20T16:12:22.815Z,12.90
2023-10-20T16:15:09.077Z,12.90
2023-10-20T16:17:54.915Z,12.90
2023-10-20T16:20:41.572Z,12.90
2023-10-20T16:23:27.404Z,12.90
2023-10-20T16:26:12.842Z,13.00
2023-10-20T16:28:58.428Z,12.90
2023-10-20T16:31:44.118Z,12.90
2023-10-20T16:34:29.868Z,12.90
2023-10-20T16:37:15.673Z,12.90
2023-10-20T16:40:01.166Z,12.90
2023-10-20T16:42:47.079Z,12.90
2023-10-20T16:45:32.889Z,12.90
2023-10-20T16:48:18.365Z,12.90
2023-10-20T16:51:04.627Z,12.90
2023-10-20T16:53:50.429Z,12.90
2023-10-20T16:56:35.953Z,12.90
2023-10-20T16:59:21.620Z,12.90
2023-10-20T17:02:07.218Z,12.90
2023-10-20T17:04:52.888Z,12.90
2023-10-20T17:07:38.416Z,12.90
2023-10-20T17:10:24.177Z,12.90
2023-10-20T17:13:09.864Z,12.90
2023-10-20T17:15:55.608Z,12.90
2023-10-20T17:18:41.640Z,12.90
2023-10-20T17:21:27.733Z,12.80
2023-10-20T17:24:13.218Z,12.80
2023-10-20T17:26:58.827Z,12.90
2023-10-20T17:29:44.890Z,12.90
2023-10-20T17:32:30.638Z,12.80
2023-10-20T17:35:16.728Z,12.90
2023-10-20T17:38:02.452Z,12.90
2023-10-20T17:40:48.538Z,12.90
2023-10-20T17:43:36.173Z,12.90
2023-10-20T17:46:22.078Z,12.90
2023-10-20T17:49:08.043Z,12.90
2023-10-20T17:51:53.920Z,12.90
2023-10-20T17:54:39.720Z,12.90
2023-10-20T17:57:25.483Z,12.90
2023-10-20T18:00:12.641Z,12.90
2023-10-20T18:02:59.144Z,12.90
2023-10-20T18:05:45.199Z,12.90
2023-10-20T18:08:31.242Z,12.90
2023-10-20T18:11:19.364Z,12.90
2023-10-20T18:14:06.695Z,12.80
2023-10-20T18:16:52.260Z,12.90
2023-10-20T18:19:37.782Z,12.90
2023-10-20T18:22:23.330Z,12.90
2023-10-20T18:25:10.397Z,12.90
2023-10-20T18:27:56.295Z,12.90
2023-10-20T18:30:41.823Z,12.80
2023-10-20T18:33:29.999Z,12.80
2023-10-20T18:36:16.036Z,12.80
2023-10-20T18:39:01.570Z,12.80
2023-10-20T18:41:47.031Z,12.80
2023-10-20T18:44:32.840Z,12.80
2023-10-20T18:47:18.525Z,12.80
2023-10-20T18:50:04.188Z,12.80
2023-10-20T18:52:49.985Z,12.80
2023-10-20T18:55:35.655Z,12.80
2023-10-20T18:58:21.183Z,12.70
2023-10-20T19:01:06.672Z,12.70
2023-10-20T19:03:52.916Z,12.70
2023-10-20T19:06:38.863Z,12.70
2023-10-20T19:09:24.365Z,12.70
2023-10-20T19:12:10.316Z,12.70
2023-10-20T19:14:56.281Z,12.70
2023-10-20T19:17:42.045Z,12.60
2023-10-20T19:20:28.101Z,12.70
2023-10-20T19:23:13.575Z,12.60
2023-10-20T19:26:06.677Z,12.60
2023-10-20T19:28:52.176Z,12.60
2023-10-20T19:31:37.612Z,12.60
2023-10-20T19:34:23.663Z,12.60
2023-10-20T19:37:09.294Z,12.60
2023-10-20T19:39:54.839Z,12.60
2023-10-20T19:42:40.472Z,12.50
2023-10-20T19:45:28.643Z,12.50
2023-10-20T19:48:14.285Z,12.50
2023-10-20T19:51:00.319Z,12.50
2023-10-20T19:53:45.918Z,12.50
2023-10-20T19:56:31.501Z,12.40
2023-10-20T19:59:17.035Z,12.50
2023-10-20T20:02:02.756Z,12.50
2023-10-20T20:04:52.225Z,12.40
2023-10-20T20:07:37.988Z,12.40
2023-10-20T20:10:24.498Z,12.40
2023-10-20T20:13:10.122Z,12.30
2023-10-20T20:16:10.883Z,12.30
2023-10-20T20:18:56.677Z,12.30
2023-10-20T20:21:42.260Z,12.30
2023-10-20T20:24:27.816Z,12.30
2023-10-20T20:27:13.355Z,12.30
2023-10-20T20:29:58.978Z,12.30
2023-10-20T20:32:45.060Z,12.30
2023-10-20T20:35:30.975Z,12.20
2023-10-20T20:38:16.523Z,12.20
2023-10-20T20:41:06.459Z,12.20
2023-10-20T20:43:51.926Z,12.20
2023-10-20T20:46:37.590Z,12.20
2023-10-20T20:49:23.451Z,12.20
2023-10-20T20:52:09.066Z,12.20
2023-10-20T20:54:56.676Z,12.20
2023-10-20T20:57:42.464Z,12.10
2023-10-20T21:00:28.386Z,12.10
2023-10-20T21:03:14.274Z,12.10
2023-10-20T21:06:03.004Z,12.10
2023-10-20T21:08:48.583Z,12.10
2023-10-20T21:11:35.158Z,12.10
2023-10-20T21:14:20.700Z,12.10
2023-10-20T21:17:06.222Z,12.10
2023-10-20T21:19:51.612Z,12.20
2023-10-20T21:22:37.039Z,12.20
2023-10-20T21:25:22.572Z,12.20
2023-10-20T21:28:07.991Z,12.20
2023-10-20T21:30:53.418Z,12.20
2023-10-20T21:33:39.197Z,12.20
2023-10-20T21:36:25.204Z,12.20
2023-10-20T21:39:10.735Z,12.20
2023-10-20T21:41:56.713Z,12.20
2023-10-20T21:44:42.261Z,12.20
2023-10-20T21:47:27.574Z,12.20
2023-10-20T21:50:13.202Z,12.30
2023-10-20T21:52:59.196Z,12.20
2023-10-20T21:55:44.971Z,12.30
2023-10-20T21:58:31.021Z,12.30
2023-10-20T22:01:16.665Z,12.20
2023-10-20T22:04:02.216Z,12.30
2023-10-20T22:06:48.211Z,12.30
2023-10-20T22:09:46.578Z,12.30
2023-10-20T22:12:39.032Z,12.30
2023-10-20T22:15:24.555Z,12.30
2023-10-20T22:18:10.372Z,12.30
2023-10-20T22:20:56.106Z,12.30
2023-10-20T22:23:41.536Z,12.40
2023-10-20T22:26:27.053Z,12.40
2023-10-20T22:29:12.589Z,12.40
2023-10-20T22:31:58.125Z,12.40
2023-10-20T22:34:43.807Z,12.40
2023-10-20T22:37:29.272Z,12.40
2023-10-20T22:40:14.861Z,12.40
2023-10-20T22:43:00.687Z,12.40
2023-10-20T22:45:46.138Z,12.30
2023-10-20T22:48:32.014Z,12.40
2023-10-20T22:51:17.838Z,12.30
2023-10-20T22:54:03.545Z,12.30
2023-10-20T22:56:49.212Z,12.30
2023-10-20T22:59:34.962Z,12.30
2023-10-20T23:02:20.977Z,12.30
2023-10-20T23:05:10.873Z,12.30
2023-10-20T23:07:56.867Z,12.30
2023-10-20T23:10:42.719Z,12.30
2023-10-20T23:13:28.255Z,12.30
2023-10-20T23:16:14.059Z,12.30
2023-10-20T23:18:59.599Z,12.30
2023-10-20T23:21:45.044Z,12.30
2023-10-20T23:24:30.567Z,12.20
2023-10-20T23:27:16.282Z,12.20
2023-10-20T23:30:02.552Z,12.30
2023-10-20T23:32:48.811Z,12.30
2023-10-20T23:35:34.694Z,12.30
2023-10-20T23:38:20.356Z,12.30
2023-10-20T23:41:05.798Z,12.30
2023-10-20T23:43:54.267Z,12.30
2023-10-20T23:46:39.827Z,12.30
2023-10-20T23:49:25.435Z,12.30
2023-10-20T23:52:10.913Z,12.30
2023-10-20T23:54:56.326Z,12.30
2023-10-20T23:57:41.699Z,12.30
